Time;durP1;ratioP1;P1;durP2;ratioP2;P2;SDS_P1;SDS_P2;PMS_P1;PMS_P2;Temp;Humidity;BMP_temperature;BMP_pressure;BME280_temperature;BME280_humidity;BME280_pressure;Samples;Min_cycle;Max_cycle;Signal;HPM_P1;HPM_P2
2021/11/04 00:02:00;;;;;;;4.75;4.32;;;;;;;9.91;71.34;99379.25;5004931;28;20058;-43
2021/11/04 00:04:26;;;;;;;4.53;4.13;;;;;;;9.92;71.29;99367.81;5002970;28;20120;-43
2021/11/04 00:06:53;;;;;;;5.38;4.88;;;;;;;9.91;71.16;99360.81;5009829;28;20588;-43
2021/11/04 00:09:19;;;;;;;5.30;4.80;;;;;;;9.90;71.19;99348.56;4999632;28;20026;-43
2021/11/04 00:11:44;;;;;;;5.35;4.72;;;;;;;9.90;71.17;99344.13;5002366;28;20032;-43
2021/11/04 00:14:09;;;;;;;6.15;5.55;;;;;;;9.91;71.42;99339.75;5005964;28;20100;-43
2021/11/04 00:16:35;;;;;;;5.40;4.90;;;;;;;9.91;71.29;99351.16;5002561;28;20188;-43
2021/11/04 00:19:00;;;;;;;5.32;4.82;;;;;;;9.91;71.18;99345.00;5003868;28;20030;-43
2021/11/04 00:21:25;;;;;;;5.15;4.65;;;;;;;9.90;71.12;99343.28;5006837;28;20041;-43
2021/11/04 00:23:51;;;;;;;5.03;4.57;;;;;;;9.87;71.44;99345.09;5000390;28;20022;-43
2021/11/04 00:26:17;;;;;;;5.28;4.78;;;;;;;9.90;71.43;99338.03;5005140;28;20033;-43
2021/11/04 00:28:42;;;;;;;5.30;4.80;;;;;;;9.88;71.17;99332.81;5002974;28;20402;-43
2021/11/04 00:31:09;;;;;;;4.90;4.40;;;;;;;9.89;71.18;99331.88;5013623;28;20022;-43
2021/11/04 00:33:37;;;;;;;5.13;4.57;;;;;;;9.88;71.29;99338.91;5005839;28;20050;-43
2021/11/04 00:36:02;;;;;;;5.13;4.40;;;;;;;9.87;71.20;99339.81;5000937;28;20064;-43
2021/11/04 00:38:28;;;;;;;5.22;4.72;;;;;;;9.91;71.30;99345.00;5008475;28;20109;-43
2021/11/04 00:40:55;;;;;;;5.53;5.03;;;;;;;9.91;71.42;99350.28;4996673;28;20030;-42
2021/11/04 00:43:20;;;;;;;5.72;4.80;;;;;;;9.90;71.16;99348.56;4997025;28;20110;-43
2021/11/04 00:45:46;;;;;;;5.47;4.95;;;;;;;9.88;71.19;99346.81;5002983;28;20109;-43
2021/11/04 00:48:11;;;;;;;5.57;5.00;;;;;;;9.89;71.40;99342.41;5005463;28;20033;-43
2021/11/04 00:50:36;;;;;;;5.07;4.68;;;;;;;9.88;71.25;99336.28;4998871;28;20022;-43
2021/11/04 00:53:02;;;;;;;5.85;5.25;;;;;;;9.88;71.30;99335.44;5011026;28;20030;-43
2021/11/04 00:55:27;;;;;;;6.18;4.97;;;;;;;9.88;71.61;99331.00;5014096;28;20516;-43
2021/11/04 00:57:52;;;;;;;5.63;4.50;;;;;;;9.88;71.56;99335.44;5006577;28;20030;-43
2021/11/04 01:00:19;;;;;;;5.30;4.60;;;;;;;9.87;71.49;99329.28;5003303;28;20033;-43
2021/11/04 01:02:44;;;;;;;5.18;4.68;;;;;;;9.87;71.50;99318.75;4997876;28;20038;-43
2021/11/04 01:05:10;;;;;;;5.20;4.70;;;;;;;9.87;71.52;99312.66;5004225;28;20509;-43
2021/11/04 01:07:35;;;;;;;5.70;5.03;;;;;;;9.87;71.37;99307.38;5002509;28;20038;-43
2021/11/04 01:10:00;;;;;;;5.10;4.60;;;;;;;9.86;71.19;99306.50;5011236;28;20072;-43
2021/11/04 01:12:26;;;;;;;4.53;4.07;;;;;;;9.85;71.30;99299.53;5012391;28;20100;-43
2021/11/04 01:14:52;;;;;;;4.90;4.38;;;;;;;9.85;71.51;99294.25;5013956;28;20030;-43
2021/11/04 01:17:17;;;;;;;5.20;4.70;;;;;;;9.86;71.09;99285.44;5013467;28;20493;-43
2021/11/04 01:19:42;;;;;;;4.97;4.47;;;;;;;9.86;71.44;99284.56;5004242;28;20087;-43
2021/11/04 01:22:08;;;;;;;4.78;4.38;;;;;;;9.86;71.47;99281.94;5007117;28;20117;-43
2021/11/04 01:24:33;;;;;;;5.68;4.82;;;;;;;9.86;71.24;99274.03;5011682;28;20060;-43
2021/11/04 01:26:59;;;;;;;4.63;4.22;;;;;;;9.86;71.33;99280.16;4988419;28;20034;-43
2021/11/04 01:29:24;;;;;;;4.88;4.45;;;;;;;9.86;71.22;99277.53;5005412;28;20519;-43
2021/11/04 01:31:49;;;;;;;6.80;5.22;;;;;;;9.84;71.50;99276.69;5008608;28;20028;-43
2021/11/04 01:34:15;;;;;;;6.28;5.68;;;;;;;9.85;71.35;99273.19;5004124;28;20045;-43
2021/11/04 01:36:40;;;;;;;6.22;5.38;;;;;;;9.84;71.48;99260.06;5004566;28;20038;-43
2021/11/04 01:39:06;;;;;;;5.95;4.80;;;;;;;9.85;71.37;99262.66;5009647;28;20026;-43
2021/11/04 01:41:31;;;;;;;5.38;4.88;;;;;;;9.85;71.44;99273.19;5000977;28;20022;-43
2021/11/04 01:43:57;;;;;;;5.78;4.97;;;;;;;9.85;71.21;99273.19;5012605;28;20113;-43
2021/11/04 01:46:23;;;;;;;5.95;5.35;;;;;;;9.84;71.45;99260.91;5010705;28;20109;-43
2021/11/04 01:48:49;;;;;;;5.40;4.90;;;;;;;9.85;71.45;99261.78;5003276;28;20094;-43
2021/11/04 01:51:16;;;;;;;6.32;4.40;;;;;;;9.84;71.21;99260.91;5012885;28;20018;-43
2021/11/04 01:53:41;;;;;;;5.68;5.10;;;;;;;9.84;71.42;99258.28;5002960;28;20049;-43
2021/11/04 01:56:07;;;;;;;5.43;4.93;;;;;;;9.84;71.52;99258.28;5006947;28;20339;-43
2021/11/04 01:58:32;;;;;;;5.57;5.03;;;;;;;9.84;71.45;99258.28;5010314;28;20022;-43
2021/11/04 02:00:57;;;;;;;5.70;5.13;;;;;;;9.83;71.47;99251.28;5014709;28;20498;-43
2021/11/04 02:03:36;;;;;;;5.68;5.18;;;;;;;9.83;71.32;99248.66;5006796;28;20034;-43
2021/11/04 02:06:24;;;;;;;5.50;4.70;;;;;;;9.84;71.52;99254.78;5006719;28;20040;-43
2021/11/04 02:09:05;;;;;;;6.40;5.38;;;;;;;9.83;71.56;99253.91;5007025;28;20030;-43
2021/11/04 02:11:39;;;;;;;7.93;4.75;;;;;;;9.83;71.30;99238.13;5006882;28;20437;-43
2021/11/04 02:14:17;;;;;;;5.97;5.38;;;;;;;9.83;71.51;99238.13;5002583;28;20655;-43
2021/11/04 02:16:42;;;;;;;6.32;5.32;;;;;;;9.81;71.34;99226.78;4985727;28;20041;-43
2021/11/04 02:19:37;;;;;;;8.23;5.30;;;;;;;9.84;71.28;99223.19;5001657;28;20026;-43
2021/11/04 02:22:04;;;;;;;5.95;4.75;;;;;;;9.81;71.33;99221.53;5005649;28;20042;-43
2021/11/04 02:24:57;;;;;;;5.93;5.13;;;;;;;9.82;71.16;99215.34;5005664;28;20101;-43
2021/11/04 02:27:22;;;;;;;5.20;4.70;;;;;;;9.81;71.41;99210.97;5001679;28;20034;-43
2021/11/04 02:29:48;;;;;;;5.22;4.70;;;;;;;9.80;71.55;99219.78;5001241;28;20034;-43
2021/11/04 02:32:13;;;;;;;5.72;5.22;;;;;;;9.82;71.38;99225.00;5000120;28;20083;-44
2021/11/04 02:34:40;;;;;;;6.63;5.05;;;;;;;9.83;71.36;99224.09;5001302;28;20084;-44
2021/11/04 02:37:07;;;;;;;6.05;4.80;;;;;;;9.81;71.31;99239.94;5007823;28;20046;-43
2021/11/04 02:39:33;;;;;;;5.60;5.10;;;;;;;9.80;71.43;99238.19;4997885;28;20021;-43
2021/11/04 02:41:59;;;;;;;5.80;4.72;;;;;;;9.80;71.56;99243.47;5010401;28;20029;-43
2021/11/04 02:44:26;;;;;;;5.38;4.88;;;;;;;9.80;71.24;99246.09;4995495;28;20080;-43
2021/11/04 02:46:54;;;;;;;5.07;4.57;;;;;;;9.81;71.30;99255.75;5006905;28;20113;-43
2021/11/04 02:49:20;;;;;;;5.43;4.90;;;;;;;9.81;71.47;99265.41;5002494;28;20026;-43
2021/11/04 02:51:45;;;;;;;6.18;5.13;;;;;;;9.81;71.32;99266.28;5009849;28;20414;-43
2021/11/04 02:54:10;;;;;;;6.22;5.28;;;;;;;9.80;71.57;99264.53;5007399;28;20121;-43
2021/11/04 02:56:49;;;;;;;7.28;5.00;;;;;;;9.80;71.55;99264.53;5003692;28;20095;-43
2021/11/04 02:59:16;;;;;;;5.30;4.80;;;;;;;9.80;71.28;99254.00;4998456;28;20514;-43
2021/11/04 03:01:43;;;;;;;5.30;4.80;;;;;;;9.81;71.25;99254.88;4993038;28;20041;-43
2021/11/04 03:04:08;;;;;;;5.60;4.95;;;;;;;9.80;71.52;99254.00;5002916;28;20049;-43
2021/11/04 03:06:34;;;;;;;5.38;4.88;;;;;;;9.80;71.58;99248.75;5010797;28;20049;-43
2021/11/04 03:08:59;;;;;;;5.68;4.97;;;;;;;9.79;70.99;99238.25;5006498;28;20061;-43
2021/11/04 03:11:24;;;;;;;6.25;4.90;;;;;;;9.78;71.30;99233.91;4999884;28;20022;-43
2021/11/04 03:13:50;;;;;;;5.95;5.35;;;;;;;9.79;71.52;99235.59;5003661;28;20038;-43
2021/11/04 03:16:16;;;;;;;5.60;4.68;;;;;;;9.78;71.28;99229.50;5007884;28;20474;-43
2021/11/04 03:18:41;;;;;;;5.38;4.88;;;;;;;9.78;71.27;99229.50;4995760;28;20030;-43
2021/11/04 03:21:07;;;;;;;5.80;5.00;;;;;;;9.80;71.48;99225.03;4992017;28;20096;-43
2021/11/04 03:23:32;;;;;;;5.75;5.25;;;;;;;9.78;71.27;99224.25;5019847;28;20033;-43
2021/11/04 03:25:58;;;;;;;7.40;5.40;;;;;;;9.77;71.53;99226.91;5000441;28;20072;-43
2021/11/04 03:28:24;;;;;;;5.25;4.75;;;;;;;9.77;71.63;99226.91;4992136;28;20589;-43
2021/11/04 03:30:50;;;;;;;6.03;4.88;;;;;;;9.77;71.51;99221.66;5009584;28;20467;-43
2021/11/04 03:33:16;;;;;;;5.22;4.72;;;;;;;9.77;71.36;99222.50;4998926;28;20061;-43
2021/11/04 03:35:42;;;;;;;5.70;5.18;;;;;;;9.77;71.35;99217.22;5001788;28;20022;-43
2021/11/04 03:38:10;;;;;;;5.10;4.60;;;;;;;9.77;71.39;99205.84;5010593;28;20030;-43
2021/11/04 03:40:35;;;;;;;6.30;5.15;;;;;;;9.77;71.51;99200.59;5007001;28;20464;-42
2021/11/04 03:43:01;;;;;;;6.05;5.20;;;;;;;9.77;71.42;99200.59;5007542;28;20037;-43
2021/11/04 03:45:27;;;;;;;6.25;5.55;;;;;;;9.76;71.36;99199.72;4999359;28;20032;-42
2021/11/04 03:47:53;;;;;;;6.25;5.65;;;;;;;9.77;71.49;99204.06;4988974;28;20034;-42
2021/11/04 03:50:19;;;;;;;6.75;5.78;;;;;;;9.77;71.50;99206.69;4994485;28;20057;-43
2021/11/04 03:52:44;;;;;;;6.40;5.30;;;;;;;9.76;71.39;99207.59;5020899;28;20609;-42
2021/11/04 03:55:12;;;;;;;6.57;5.97;;;;;;;9.76;71.42;99210.25;4995961;28;20026;-42
2021/11/04 03:57:39;;;;;;;5.22;4.82;;;;;;;9.75;71.51;99211.16;4998051;28;20026;-42
2021/11/04 04:00:07;;;;;;;6.40;5.53;;;;;;;9.75;71.42;99208.53;4992200;28;20437;-43
2021/11/04 04:02:33;;;;;;;5.97;5.35;;;;;;;9.73;71.41;99208.56;5002331;28;20034;-43
2021/11/04 04:04:58;;;;;;;6.68;5.95;;;;;;;9.74;71.44;99217.34;5011489;28;20129;-43
2021/11/04 04:07:31;;;;;;;7.30;6.00;;;;;;;9.76;71.30;99220.78;5006164;28;20058;-42
2021/11/04 04:09:56;;;;;;;6.55;5.32;;;;;;;9.76;71.51;99220.78;4998835;28;20029;-42
2021/11/04 04:12:22;;;;;;;7.65;5.32;;;;;;;9.74;71.68;99215.53;5008347;28;20488;-42
2021/11/04 04:14:48;;;;;;;5.85;5.30;;;;;;;9.74;71.73;99218.19;4996970;28;20463;-43
2021/11/04 04:17:13;;;;;;;7.65;5.55;;;;;;;9.75;71.77;99219.06;5000526;28;20053;-43
2021/11/04 04:19:39;;;;;;;6.78;6.05;;;;;;;9.74;71.69;99217.34;4996701;28;20026;-42
2021/11/04 04:22:05;;;;;;;6.13;4.97;;;;;;;9.73;71.57;99213.81;4997964;28;20108;-42
2021/11/04 04:24:31;;;;;;;5.25;4.75;;;;;;;9.73;71.50;99215.59;4997588;28;20035;-42
2021/11/04 04:26:56;;;;;;;7.32;5.80;;;;;;;9.74;71.62;99219.97;5004991;28;20036;-43
2021/11/04 04:29:22;;;;;;;5.70;5.10;;;;;;;9.71;71.42;99222.69;4997761;28;20121;-43
2021/11/04 04:31:47;;;;;;;6.53;5.65;;;;;;;9.74;71.55;99225.25;5000178;28;20029;-43
2021/11/04 04:34:13;;;;;;;6.55;5.22;;;;;;;9.72;71.70;99214.75;5000516;28;20647;-43
2021/11/04 04:36:38;;;;;;;6.95;5.68;;;;;;;9.72;71.43;99209.47;5007335;28;20056;-43
2021/11/04 04:39:03;;;;;;;5.88;5.30;;;;;;;9.72;71.56;99208.59;5007728;28;20033;-43
2021/11/04 04:41:29;;;;;;;6.20;5.60;;;;;;;9.74;71.71;99212.06;4997167;28;20022;-43
2021/11/04 04:43:54;;;;;;;5.53;5.00;;;;;;;9.71;71.79;99197.19;4994910;28;20088;-43
2021/11/04 04:46:21;;;;;;;5.82;5.25;;;;;;;9.72;71.80;99192.81;5002600;28;20026;-43
2021/11/04 04:48:47;;;;;;;6.32;5.47;;;;;;;9.73;71.87;99194.53;5008960;28;20034;-43
2021/11/04 04:51:12;;;;;;;6.25;5.65;;;;;;;9.71;71.64;99188.47;5010127;28;20074;-43
2021/11/04 04:53:37;;;;;;;6.80;5.43;;;;;;;9.72;71.74;99192.81;5010614;28;20493;-42
2021/11/04 04:56:03;;;;;;;6.25;5.55;;;;;;;9.70;71.59;99187.59;5001800;28;20121;-43
2021/11/04 04:58:28;;;;;;;5.80;5.20;;;;;;;9.70;71.75;99190.22;4999524;28;20045;-43
2021/11/04 05:00:53;;;;;;;5.45;4.95;;;;;;;9.71;71.71;99191.94;5000624;28;20026;-43
2021/11/04 05:03:19;;;;;;;6.45;5.43;;;;;;;9.71;71.75;99189.31;4996321;28;20057;-44
2021/11/04 05:05:44;;;;;;;6.72;6.13;;;;;;;9.69;71.55;99179.72;4994058;28;20030;-44
2021/11/04 05:08:10;;;;;;;6.53;5.88;;;;;;;9.70;71.82;99187.59;4993429;28;20022;-43
2021/11/04 05:10:35;;;;;;;6.35;5.75;;;;;;;9.70;71.64;99184.09;4993745;28;20483;-43
2021/11/04 05:13:00;;;;;;;6.07;5.47;;;;;;;9.70;71.69;99184.94;5005814;28;20429;-43
2021/11/04 05:15:26;;;;;;;6.60;6.00;;;;;;;9.70;71.76;99181.47;4998697;28;20049;-44
2021/11/04 05:17:51;;;;;;;6.57;5.93;;;;;;;9.69;71.86;99175.34;5022136;28;20058;-44
2021/11/04 05:20:16;;;;;;;6.40;5.70;;;;;;;9.70;71.58;99173.59;4994816;28;20113;-43
2021/11/04 05:22:42;;;;;;;6.60;5.90;;;;;;;9.69;71.61;99170.06;4994462;28;20057;-43
2021/11/04 05:25:07;;;;;;;6.82;5.85;;;;;;;9.69;71.84;99167.44;4995022;28;20073;-43
2021/11/04 05:27:33;;;;;;;6.78;6.15;;;;;;;9.69;71.96;99161.31;5005818;28;20032;-43
2021/11/04 05:29:58;;;;;;;6.18;5.57;;;;;;;9.68;71.76;99155.19;5012728;28;20029;-44
2021/11/04 05:32:23;;;;;;;6.60;5.55;;;;;;;9.68;71.53;99149.06;4998378;28;20582;-44
2021/11/04 05:34:49;;;;;;;7.22;6.47;;;;;;;9.67;71.75;99142.91;4992720;28;20038;-44
2021/11/04 05:37:14;;;;;;;8.45;6.80;;;;;;;9.68;71.58;99128.88;5009061;28;20045;-43
2021/11/04 05:39:40;;;;;;;7.90;6.18;;;;;;;9.66;71.75;99130.66;4986831;28;20497;-43
2021/11/04 05:42:07;;;;;;;6.68;6.03;;;;;;;9.67;71.70;99129.75;4993870;28;20037;-43
2021/11/04 05:44:35;;;;;;;6.68;5.97;;;;;;;9.66;71.89;99119.25;5002838;28;20038;-43
2021/11/04 05:47:00;;;;;;;6.93;6.22;;;;;;;9.67;71.48;99121.00;5011867;28;20033;-44
2021/11/04 05:49:25;;;;;;;7.90;6.85;;;;;;;9.67;71.99;99113.97;5011537;28;20034;-44
2021/11/04 05:51:51;;;;;;;7.78;6.88;;;;;;;9.67;71.84;99121.00;4994078;28;20018;-44
2021/11/04 05:54:16;;;;;;;6.93;6.22;;;;;;;9.67;71.72;99121.00;5006867;28;20030;-43
2021/11/04 05:56:41;;;;;;;6.57;5.90;;;;;;;9.66;71.62;99119.25;5013031;28;20025;-44
2021/11/04 05:59:07;;;;;;;7.50;6.40;;;;;;;9.67;71.73;99128.91;4997556;28;20034;-43
2021/11/04 06:01:32;;;;;;;7.07;6.20;;;;;;;9.67;71.92;99110.47;5008810;28;20498;-43
2021/11/04 06:03:58;;;;;;;8.38;7.28;;;;;;;9.66;71.70;99117.50;5004703;28;20041;-43
2021/11/04 06:06:23;;;;;;;7.75;6.95;;;;;;;9.66;71.82;99108.75;4998804;28;20071;-43
2021/11/04 06:08:49;;;;;;;7.32;6.55;;;;;;;9.66;71.75;99095.56;5009470;28;20073;-43
2021/11/04 06:11:14;;;;;;;8.15;6.97;;;;;;;9.66;71.66;99098.22;4999976;28;20481;-43
2021/11/04 06:13:39;;;;;;;9.02;6.70;;;;;;;9.66;72.00;99099.09;4992363;28;20037;-43
2021/11/04 06:16:12;;;;;;;8.32;7.03;;;;;;;9.65;71.85;99088.59;5010584;28;20037;-44
2021/11/04 06:18:37;;;;;;;7.95;7.15;;;;;;;9.63;71.70;99089.50;4996807;28;20026;-44
2021/11/04 06:21:03;;;;;;;9.02;7.80;;;;;;;9.65;71.93;99096.50;4993070;28;20073;-44
2021/11/04 06:23:28;;;;;;;10.50;8.25;;;;;;;9.64;72.19;99100.91;4997152;28;20034;-44
2021/11/04 06:25:53;;;;;;;8.18;7.38;;;;;;;9.63;71.75;99086.88;5006412;28;20117;-44
2021/11/04 06:28:18;;;;;;;9.50;8.18;;;;;;;9.63;71.94;99093.91;5001712;28;20065;-44
2021/11/04 06:30:44;;;;;;;10.65;8.52;;;;;;;9.63;71.73;99099.16;4999847;28;20026;-43
2021/11/04 06:33:09;;;;;;;10.85;8.10;;;;;;;9.61;71.90;99096.56;5007820;28;20482;-43
2021/11/04 06:35:34;;;;;;;10.98;8.60;;;;;;;9.62;71.73;99085.16;5005379;28;20498;-44
2021/11/04 06:38:00;;;;;;;11.88;8.93;;;;;;;9.62;71.98;99102.72;5003249;28;20053;-44
2021/11/04 06:40:27;;;;;;;10.10;8.43;;;;;;;9.60;72.01;99089.59;4996083;28;20066;-43
2021/11/04 06:42:53;;;;;;;10.40;8.68;;;;;;;9.62;72.00;99098.31;4994903;28;20073;-43
2021/11/04 06:45:18;;;;;;;10.80;8.45;;;;;;;9.62;72.03;99097.44;5009937;28;20057;-43
2021/11/04 06:47:49;;;;;;;9.82;8.57;;;;;;;9.62;71.85;99108.84;4998231;28;20105;-44
2021/11/04 06:50:17;;;;;;;13.82;8.98;;;;;;;9.61;72.02;99107.09;5011868;28;20030;-43
2021/11/04 06:52:56;;;;;;;12.80;8.90;;;;;;;9.61;71.91;99101.84;5011038;28;20029;-43
2021/11/04 06:55:25;;;;;;;14.38;9.68;;;;;;;9.61;71.97;99096.56;5007245;28;20471;-44
2021/11/04 06:57:52;;;;;;;12.20;9.52;;;;;;;9.60;71.95;99094.88;5000764;28;20025;-43
2021/11/04 07:00:18;;;;;;;13.30;10.18;;;;;;;9.61;72.02;99095.75;5007581;28;20033;-44
2021/11/04 07:02:51;;;;;;;11.65;9.60;;;;;;;9.60;71.85;99101.88;4992630;28;20030;-44
2021/11/04 07:05:18;;;;;;;10.27;9.13;;;;;;;9.59;71.99;99103.69;5008677;28;20037;-43
2021/11/04 07:07:46;;;;;;;12.77;9.40;;;;;;;9.59;72.08;99105.44;5010373;28;20037;-42
2021/11/04 07:10:12;;;;;;;11.15;9.93;;;;;;;9.59;72.11;99111.56;4992631;28;20022;-43
2021/11/04 07:12:42;;;;;;;12.30;9.63;;;;;;;9.60;72.12;99120.31;4992791;28;20019;-43
2021/11/04 07:15:08;;;;;;;11.57;9.43;;;;;;;9.59;71.95;99111.56;4998149;28;20060;-43
2021/11/04 07:17:33;;;;;;;10.77;9.30;;;;;;;9.59;71.80;99119.47;5007278;28;20030;-43
2021/11/04 07:19:59;;;;;;;10.43;9.23;;;;;;;9.59;72.12;99110.69;4995950;28;20029;-43
2021/11/04 07:22:35;;;;;;;11.30;8.95;;;;;;;9.59;72.03;99108.06;4990530;28;20027;-44
2021/11/04 07:25:07;;;;;;;11.43;9.43;;;;;;;9.59;71.95;99115.97;4996577;28;20421;-43
2021/11/04 07:27:49;;;;;;;9.98;8.98;;;;;;;9.58;72.04;99109.00;5007090;28;20482;-43
2021/11/04 07:30:17;;;;;;;12.45;9.82;;;;;;;9.57;72.01;99104.63;4999393;28;20034;-42
2021/11/04 07:32:50;;;;;;;9.88;8.88;;;;;;;9.58;72.09;99101.09;4992901;28;20076;-43
2021/11/04 07:35:18;;;;;;;12.23;10.02;;;;;;;9.57;72.20;99100.22;5009555;28;20029;-42
2021/11/04 07:37:44;;;;;;;11.73;8.98;;;;;;;9.57;72.19;99105.47;5003808;28;20451;-43
2021/11/04 07:40:10;;;;;;;12.07;9.90;;;;;;;9.57;72.15;99092.31;4999040;28;20025;-43
2021/11/04 07:42:37;;;;;;;10.48;9.48;;;;;;;9.56;72.06;99089.72;5008017;28;20030;-43
2021/11/04 07:45:03;;;;;;;11.93;10.63;;;;;;;9.56;72.10;99089.72;4988619;28;20183;-43
2021/11/04 07:47:29;;;;;;;10.77;9.02;;;;;;;9.56;72.03;99087.09;4992171;28;20102;-43
2021/11/04 07:49:54;;;;;;;11.85;9.82;;;;;;;9.55;72.20;99088.88;4990303;28;20117;-43
2021/11/04 07:52:19;;;;;;;12.98;10.30;;;;;;;9.56;72.26;99093.25;4998875;28;20498;-43
2021/11/04 07:54:45;;;;;;;10.73;9.50;;;;;;;9.54;71.94;99087.16;4991354;28;20514;-42
2021/11/04 07:57:10;;;;;;;12.57;10.13;;;;;;;9.54;72.21;99081.88;4997616;28;20109;-44
2021/11/04 07:59:35;;;;;;;12.30;10.63;;;;;;;9.55;72.23;99080.13;5000863;28;20076;-43
2021/11/04 08:02:01;;;;;;;12.88;10.25;;;;;;;9.54;72.21;99083.66;5010145;28;20034;-43
2021/11/04 08:04:27;;;;;;;13.20;10.40;;;;;;;9.54;72.05;99073.13;5007787;28;20026;-44
2021/11/04 08:06:53;;;;;;;12.60;9.32;;;;;;;9.54;72.28;99073.97;4990160;28;20030;-44
2021/11/04 08:09:19;;;;;;;12.55;10.13;;;;;;;9.54;72.05;99067.88;4996298;28;20105;-43
2021/11/04 08:11:44;;;;;;;11.43;9.80;;;;;;;9.54;72.09;99067.88;5009527;28;20122;-44
2021/11/04 08:14:09;;;;;;;12.40;10.07;;;;;;;9.53;72.21;99072.25;5007968;28;20029;-43
2021/11/04 08:16:35;;;;;;;12.50;9.70;;;;;;;9.52;72.61;99067.91;5009351;28;20033;-43
2021/11/04 08:19:00;;;;;;;14.05;10.23;;;;;;;9.53;72.09;99076.69;5010891;28;20026;-43
2021/11/04 08:21:25;;;;;;;11.63;9.00;;;;;;;9.53;72.34;99066.16;5004316;28;20056;-43
2021/11/04 08:23:51;;;;;;;12.80;10.40;;;;;;;9.53;72.16;99074.06;4993021;28;20034;-44
2021/11/04 08:26:16;;;;;;;10.75;9.63;;;;;;;9.51;72.31;99074.09;4997434;28;20052;-43
2021/11/04 08:28:42;;;;;;;14.13;9.85;;;;;;;9.51;72.20;99066.22;5010446;28;20057;-43
2021/11/04 08:31:07;;;;;;;11.55;9.07;;;;;;;9.51;72.40;99066.22;5005817;28;20049;-44
2021/11/04 08:33:32;;;;;;;9.88;8.70;;;;;;;9.51;72.34;99068.84;4996332;28;20095;-43
2021/11/04 08:35:58;;;;;;;12.50;9.70;;;;;;;9.50;72.10;99069.72;5003253;28;20046;-43
2021/11/04 08:38:23;;;;;;;11.38;9.82;;;;;;;9.50;72.45;99069.72;4984535;28;20033;-44
2021/11/04 08:40:49;;;;;;;11.73;8.82;;;;;;;9.50;72.14;99064.47;5002744;28;20033;-43
2021/11/04 08:43:14;;;;;;;11.20;8.95;;;;;;;9.49;72.33;99062.75;5001775;28;20025;-43
2021/11/04 08:45:39;;;;;;;11.70;9.50;;;;;;;9.50;72.27;99067.09;5002917;28;20045;-43
2021/11/04 08:48:05;;;;;;;12.05;9.88;;;;;;;9.50;72.15;99067.97;5003237;28;20071;-43
2021/11/04 08:50:30;;;;;;;12.35;9.57;;;;;;;9.49;72.23;99066.25;5014703;28;20474;-42
2021/11/04 08:52:56;;;;;;;12.45;9.57;;;;;;;9.50;72.15;99067.97;5012909;28;20040;-42
2021/11/04 08:55:21;;;;;;;11.02;9.07;;;;;;;9.49;72.23;99065.38;5011665;28;20029;-41
2021/11/04 08:57:47;;;;;;;10.98;8.70;;;;;;;9.48;72.27;99071.56;5001737;28;20019;-43
2021/11/04 09:00:15;;;;;;;12.52;8.90;;;;;;;9.48;72.48;99067.13;4995893;28;20574;-44
2021/11/04 09:02:41;;;;;;;12.45;9.40;;;;;;;9.47;72.45;99070.69;5005547;28;20526;-43
2021/11/04 09:05:08;;;;;;;10.85;8.85;;;;;;;9.48;72.57;99066.28;5005911;28;20038;-43
2021/11/04 09:07:33;;;;;;;10.30;8.50;;;;;;;9.49;72.33;99070.63;5001045;28;20030;-43
2021/11/04 09:10:00;;;;;;;9.30;7.93;;;;;;;9.48;72.40;99071.56;5005506;28;20030;-43
2021/11/04 09:12:25;;;;;;;10.02;8.77;;;;;;;9.49;72.37;99070.63;5008138;28;20025;-42
2021/11/04 09:14:51;;;;;;;10.27;8.55;;;;;;;9.47;72.53;99073.31;4997882;28;20045;-42
2021/11/04 09:17:18;;;;;;;10.38;8.98;;;;;;;9.46;72.41;99076.88;5011803;28;20598;-44
2021/11/04 09:19:43;;;;;;;10.57;8.30;;;;;;;9.48;72.54;99068.94;5006198;28;20146;-44
2021/11/04 09:22:09;;;;;;;10.70;8.15;;;;;;;9.48;72.60;99074.19;5013126;28;20034;-42
2021/11/04 09:24:34;;;;;;;9.82;7.88;;;;;;;9.47;72.32;99067.22;4998034;28;20030;-41
2021/11/04 09:27:02;;;;;;;9.25;7.88;;;;;;;9.46;72.43;99070.72;4995110;28;20058;-44
2021/11/04 09:29:32;;;;;;;10.93;8.90;;;;;;;9.47;72.40;99068.06;4997237;28;20525;-43
2021/11/04 09:32:00;;;;;;;11.00;8.63;;;;;;;9.46;72.42;99070.72;5007539;28;20069;-43
2021/11/04 09:34:27;;;;;;;10.73;8.02;;;;;;;9.46;72.66;99070.72;5005030;28;20048;-43
2021/11/04 09:36:52;;;;;;;9.93;7.75;;;;;;;9.45;72.68;99069.00;5008588;28;20041;-44
2021/11/04 09:39:17;;;;;;;8.93;8.02;;;;;;;9.46;72.41;99068.09;5010192;28;20034;-44
2021/11/04 09:41:46;;;;;;;8.85;7.55;;;;;;;9.46;72.60;99065.47;5012062;28;20018;-43
2021/11/04 09:44:11;;;;;;;10.13;8.63;;;;;;;9.46;72.46;99078.63;5000710;28;20030;-43
2021/11/04 09:46:37;;;;;;;8.45;7.13;;;;;;;9.46;72.66;99076.00;5000524;28;20082;-43
2021/11/04 09:49:06;;;;;;;8.70;7.10;;;;;;;9.45;72.46;99069.00;5010718;28;20065;-45
2021/11/04 09:51:35;;;;;;;9.77;7.78;;;;;;;9.43;72.53;99066.44;4993719;28;20026;-43
2021/11/04 09:54:04;;;;;;;8.38;6.95;;;;;;;9.45;72.50;99069.88;4994677;28;20033;-43
2021/11/04 09:56:30;;;;;;;8.38;6.95;;;;;;;9.43;72.62;99071.69;5001941;28;20033;-43
2021/11/04 09:58:55;;;;;;;9.65;7.50;;;;;;;9.45;72.50;99066.38;5001918;28;20018;-44
2021/11/04 10:01:47;;;;;;;8.50;7.60;;;;;;;9.43;72.53;99065.56;5007246;28;20064;-43
2021/11/04 10:04:13;;;;;;;8.60;7.30;;;;;;;9.42;72.57;99062.06;4992103;28;20042;-44
2021/11/04 10:06:39;;;;;;;8.75;7.50;;;;;;;9.42;72.44;99063.84;5006274;28;20038;-43
2021/11/04 10:09:09;;;;;;;9.05;7.53;;;;;;;9.44;72.73;99068.13;5001965;28;20473;-44
2021/11/04 10:11:36;;;;;;;15.10;12.98;;;;;;;9.43;72.60;99058.53;4998495;28;20508;-43
2021/11/04 10:17:36;;;;;;;16.75;14.82;;;;;;;9.41;72.74;99057.72;5005503;28;20559;-43
2021/11/04 10:20:23;;;;;;;17.13;15.30;;;;;;;9.43;72.61;99063.78;5007138;28;20586;-44
2021/11/04 10:23:06;;;;;;;17.52;15.60;;;;;;;9.41;72.54;99057.72;5006746;28;20022;-42
2021/11/04 10:25:31;;;;;;;17.45;14.63;;;;;;;9.40;72.55;99057.78;5009923;28;20048;-41
2021/11/04 10:27:58;;;;;;;18.15;15.32;;;;;;;9.42;72.67;99066.47;5008191;28;20494;-43
2021/11/04 10:30:43;;;;;;;16.83;15.23;;;;;;;9.41;72.75;99062.13;5004266;28;20032;-43
2021/11/04 10:33:25;;;;;;;16.58;14.85;;;;;;;9.39;72.31;99054.28;5004845;28;20116;-43
2021/11/04 10:36:11;;;;;;;15.85;14.25;;;;;;;9.41;72.76;99054.22;5007350;28;20486;-43
2021/11/04 10:38:54;;;;;;;16.63;14.75;;;;;;;9.40;72.69;99063.03;5008266;28;20541;-43
2021/11/04 10:41:26;;;;;;;16.13;13.95;;;;;;;9.41;72.77;99067.38;4999428;28;20038;-43
2021/11/04 10:43:54;;;;;;;15.80;13.98;;;;;;;9.41;72.61;99064.75;5000488;28;20039;-43
2021/11/04 10:46:20;;;;;;;14.90;13.48;;;;;;;9.40;72.66;99060.41;5008332;28;20022;-43
2021/11/04 10:48:56;;;;;;;14.85;13.45;;;;;;;9.40;72.72;99057.78;5000056;28;20040;-42
2021/11/04 10:51:21;;;;;;;14.77;13.23;;;;;;;9.40;72.75;99063.03;5006381;28;20466;-43
2021/11/04 10:54:15;;;;;;;16.02;14.27;;;;;;;9.40;72.57;99058.63;5009758;28;20109;-44
2021/11/04 10:56:43;;;;;;;14.23;12.73;;;;;;;9.40;72.78;99060.41;5008284;28;20057;-44
2021/11/04 10:59:13;;;;;;;13.50;12.13;;;;;;;9.41;72.65;99059.50;4994265;28;20030;-44
2021/11/04 11:01:47;;;;;;;13.48;12.20;;;;;;;9.40;72.68;99066.50;5012025;28;20025;-44
2021/11/04 11:04:18;;;;;;;13.48;12.15;;;;;;;9.39;72.62;99059.53;5001213;28;20545;-43
2021/11/04 11:06:56;;;;;;;12.98;11.68;;;;;;;9.39;72.60;99064.78;4998083;28;20041;-43
2021/11/04 11:09:24;;;;;;;13.15;11.85;;;;;;;9.41;72.71;99067.38;5004366;28;20171;-43
2021/11/04 11:11:52;;;;;;;12.73;11.45;;;;;;;9.40;72.76;99063.03;4979500;28;20026;-44
2021/11/04 11:14:22;;;;;;;12.77;11.57;;;;;;;9.40;72.64;99055.16;5007645;28;20030;-43
2021/11/04 11:16:52;;;;;;;11.73;10.52;;;;;;;9.39;72.69;99056.03;5010234;28;20445;-43
2021/11/04 11:19:28;;;;;;;12.37;11.20;;;;;;;9.38;72.68;99057.81;5012268;28;20025;-44
2021/11/04 11:21:55;;;;;;;10.30;9.30;;;;;;;9.39;72.87;99066.56;5005508;28;20030;-43
2021/11/04 11:24:38;;;;;;;11.48;10.27;;;;;;;9.39;72.68;99059.53;5004638;28;20054;-43
2021/11/04 11:27:11;;;;;;;10.05;9.15;;;;;;;9.41;72.72;99059.50;4989749;28;20105;-42
2021/11/04 11:29:40;;;;;;;10.25;9.23;;;;;;;9.39;72.72;99059.53;5000854;28;20067;-42
2021/11/04 11:32:20;;;;;;;10.25;9.25;;;;;;;9.39;72.66;99062.16;5005925;28;20026;-42
2021/11/04 11:34:46;;;;;;;9.90;9.10;;;;;;;9.39;72.54;99061.28;4997818;28;20375;-46
2021/11/04 11:37:27;;;;;;;9.60;8.70;;;;;;;9.39;72.51;99061.28;5001592;28;20034;-44
2021/11/04 11:39:54;;;;;;;9.13;8.23;;;;;;;9.37;72.54;99062.22;5004340;28;20030;-41
2021/11/04 11:42:21;;;;;;;9.02;8.23;;;;;;;9.40;72.63;99065.66;4991095;28;20293;-42